Time;durP1;ratioP1;P1;durP2;ratioP2;P2;SDS_P1;SDS_P2;PMS_P1;PMS_P2;Temp;Humidity;BMP_temperature;BMP_pressure;BME280_temperature;BME280_humidity;BME280_pressure;Samples;Min_cycle;Max_cycle;Signal;HPM_P1;HPM_P2
2022/02/14 00:00:59;;;;;;;17.25;12.38;;;;;;;1.55;72.72;101774.72;5089234;28;20376;-72
2022/02/14 00:03:24;;;;;;;21.35;14.10;;;;;;;1.38;72.83;101761.69;5096893;28;20062;-72
2022/02/14 00:05:51;;;;;;;21.20;14.57;;;;;;;1.32;73.06;101775.94;5084589;28;20471;-72
2022/02/14 00:08:16;;;;;;;18.75;14.07;;;;;;;1.40;73.01;101766.94;5067344;28;20045;-72
2022/02/14 00:10:42;;;;;;;24.13;14.50;;;;;;;1.31;72.54;101764.72;5055270;28;20056;-72
2022/02/14 00:13:07;;;;;;;27.88;13.27;;;;;;;1.25;73.53;101761.75;5061232;28;20044;-73
2022/02/14 00:15:34;;;;;;;14.38;9.27;;;;;;;1.84;72.06;101769.50;5060509;28;20075;-72
2022/02/14 00:17:59;;;;;;;16.33;10.20;;;;;;;2.15;71.28;101758.28;5047197;28;20031;-72
2022/02/14 00:20:25;;;;;;;20.77;11.73;;;;;;;2.01;71.06;101754.03;5063170;28;20443;-73
2022/02/14 00:22:50;;;;;;;15.82;10.65;;;;;;;2.27;70.57;101758.06;5047072;28;20039;-73
2022/02/14 00:25:29;;;;;;;20.77;11.70;;;;;;;2.10;70.94;101754.56;5052605;28;20041;-72
2022/02/14 00:27:57;;;;;;;19.60;12.65;;;;;;;2.09;70.62;101752.78;5060751;28;20043;-72
2022/02/14 00:30:22;;;;;;;27.33;15.00;;;;;;;2.08;70.85;101758.75;5056056;28;20040;-73
2022/02/14 00:32:48;;;;;;;18.70;13.23;;;;;;;2.09;71.21;101752.78;5060137;28;20031;-72
2022/02/14 00:35:14;;;;;;;20.83;14.00;;;;;;;2.13;71.22;101751.25;5051258;28;20475;-73
2022/02/14 00:37:41;;;;;;;21.42;14.68;;;;;;;2.11;71.16;101743.41;5068390;28;20047;-72
2022/02/14 00:40:07;;;;;;;24.95;16.98;;;;;;;2.28;70.80;101742.63;5037100;28;20392;-73
2022/02/14 00:42:32;;;;;;;17.20;12.23;;;;;;;1.96;70.76;101747.72;5052020;28;20048;-72
2022/02/14 00:44:58;;;;;;;21.13;14.98;;;;;;;1.97;71.15;101732.28;5055867;28;20560;-72
2022/02/14 00:47:23;;;;;;;21.33;15.35;;;;;;;2.03;71.09;101736.91;5060392;28;20037;-72
2022/02/14 00:49:49;;;;;;;26.85;18.33;;;;;;;2.29;70.55;101740.94;5066959;28;20047;-73
2022/02/14 00:52:14;;;;;;;20.25;15.70;;;;;;;1.62;72.08;101726.00;5063868;28;20492;-72
2022/02/14 00:54:40;;;;;;;27.27;16.25;;;;;;;1.38;73.68;101730.66;5058047;28;20051;-73
2022/02/14 00:57:05;;;;;;;19.02;15.75;;;;;;;1.98;72.00;101718.53;5055755;28;20469;-72
2022/02/14 00:59:31;;;;;;;20.67;14.98;;;;;;;2.04;71.59;101728.34;5046805;28;21332;-73
2022/02/14 01:01:56;;;;;;;22.50;17.48;;;;;;;0.73;75.55;101704.38;5066564;28;20040;-73
2022/02/14 01:04:22;;;;;;;20.75;16.33;;;;;;;1.33;74.17;101726.00;5048646;28;20036;-73
2022/02/14 01:06:48;;;;;;;30.77;19.42;;;;;;;1.26;74.08;101725.66;5073512;28;20047;-73
2022/02/14 01:09:13;;;;;;;21.65;16.77;;;;;;;1.20;74.22;101708.88;5088753;28;20086;-72
2022/02/14 01:11:39;;;;;;;26.13;17.95;;;;;;;1.30;73.53;101718.94;5085708;28;20107;-74
2022/02/14 01:14:06;;;;;;;20.63;17.00;;;;;;;1.31;74.12;101723.34;5088039;28;20071;-73
2022/02/14 01:16:32;;;;;;;26.52;18.52;;;;;;;1.04;74.49;101718.31;5088085;28;20051;-72
2022/02/14 01:19:04;;;;;;;26.88;17.90;;;;;;;1.29;73.44;101712.00;5081668;28;20116;-72
2022/02/14 01:21:30;;;;;;;31.23;19.52;;;;;;;1.16;74.45;101717.25;5083004;28;20044;-72
2022/02/14 01:23:55;;;;;;;33.83;18.30;;;;;;;0.95;75.14;101704.84;5090201;28;20451;-72
2022/02/14 01:26:21;;;;;;;29.50;19.65;;;;;;;1.04;75.10;101717.41;5092026;28;20028;-74
2022/02/14 01:28:46;;;;;;;27.67;18.83;;;;;;;0.94;75.12;101705.66;5091550;28;20036;-73
2022/02/14 01:31:12;;;;;;;33.40;20.02;;;;;;;0.92;75.81;101704.66;5091859;28;20402;-72
2022/02/14 01:33:37;;;;;;;29.98;21.98;;;;;;;1.12;75.12;101698.06;5093446;28;20040;-72
2022/02/14 01:36:03;;;;;;;26.75;20.27;;;;;;;0.92;75.65;101696.91;5091109;28;20056;-72
2022/02/14 01:38:28;;;;;;;35.63;20.55;;;;;;;0.97;75.47;101700.66;5087956;28;20498;-72
2022/02/14 01:41:17;;;;;;;29.52;19.77;;;;;;;0.77;76.20;101702.06;5079536;28;20498;-72
2022/02/14 01:43:43;;;;;;;28.35;17.40;;;;;;;0.84;75.82;101686.13;5084125;28;20036;-72
2022/02/14 01:46:10;;;;;;;27.33;18.40;;;;;;;0.94;75.88;101676.34;5090670;28;20044;-72
2022/02/14 01:48:35;;;;;;;23.80;17.98;;;;;;;1.30;75.34;101674.13;5083710;28;20074;-72
2022/02/14 01:51:02;;;;;;;24.15;16.90;;;;;;;1.55;74.50;101687.66;5089082;28;20461;-72
2022/02/14 01:53:27;;;;;;;26.13;17.83;;;;;;;1.48;74.60;101690.69;5091397;28;20032;-73
2022/02/14 01:56:06;;;;;;;22.40;15.15;;;;;;;1.32;74.96;101688.03;5092659;28;20341;-73
2022/02/14 01:58:32;;;;;;;32.72;14.90;;;;;;;0.71;76.43;101687.88;5092042;28;20737;-72
2022/02/14 02:00:58;;;;;;;31.00;19.83;;;;;;;0.54;78.06;101686.84;5099478;27;20036;-74
2022/02/14 02:03:25;;;;;;;37.00;22.05;;;;;;;0.10;79.84;101691.03;5086772;28;20044;-73
2022/02/14 02:05:51;;;;;;;37.92;20.48;;;;;;;-0.05;80.40;101685.81;5090846;28;20032;-73
2022/02/14 02:08:17;;;;;;;29.75;21.50;;;;;;;-0.14;80.90;101697.22;5090570;28;20036;-72
2022/02/14 02:10:42;;;;;;;35.67;23.23;;;;;;;-0.30;81.08;101696.25;5087231;28;20051;-72
2022/02/14 02:13:08;;;;;;;38.25;22.85;;;;;;;-0.43;81.44;101689.38;5088913;28;20036;-73
2022/02/14 02:15:37;;;;;;;28.40;16.48;;;;;;;-0.32;80.92;101695.25;5087105;28;20052;-72
2022/02/14 02:18:06;;;;;;;25.77;16.98;;;;;;;-0.05;81.05;101697.81;5077441;28;20069;-72
2022/02/14 02:20:31;;;;;;;25.17;16.88;;;;;;;-0.06;80.53;101693.44;5087975;28;20082;-73
2022/02/14 02:22:57;;;;;;;24.88;17.02;;;;;;;-0.23;80.39;101675.22;5089758;28;20464;-72
2022/02/14 02:25:22;;;;;;;24.73;13.95;;;;;;;-0.56;80.98;101681.69;5086547;28;20036;-72
2022/02/14 02:27:51;;;;;;;26.60;14.43;;;;;;;-0.91;81.53;101682.81;5087699;28;20036;-73
2022/02/14 02:30:18;;;;;;;26.15;17.30;;;;;;;-0.86;82.02;101690.84;5089078;28;20032;-73
2022/02/14 02:32:44;;;;;;;21.30;13.18;;;;;;;-0.77;81.56;101677.66;5089755;28;20055;-72
2022/02/14 02:35:10;;;;;;;21.58;12.20;;;;;;;-0.37;80.62;101693.19;5091214;28;20085;-73
2022/02/14 02:37:36;;;;;;;17.40;12.15;;;;;;;-0.40;80.05;101669.75;5085207;28;20377;-73
2022/02/14 02:40:03;;;;;;;16.67;11.43;;;;;;;-0.35;80.27;101692.50;5091873;28;20040;-72
2022/02/14 02:42:28;;;;;;;17.23;10.55;;;;;;;-0.56;81.08;101684.25;5089590;28;20122;-72
2022/02/14 02:44:55;;;;;;;28.73;15.95;;;;;;;-0.74;81.83;101691.66;5085291;28;20126;-74
2022/02/14 02:47:22;;;;;;;19.30;10.15;;;;;;;-0.58;81.49;101684.94;5089112;28;20115;-74
2022/02/14 02:49:49;;;;;;;15.25;9.15;;;;;;;-0.81;81.93;101675.69;5087169;28;20047;-74
2022/02/14 02:52:16;;;;;;;19.38;11.95;;;;;;;-0.60;81.65;101677.09;5082998;28;20051;-74
2022/02/14 02:54:58;;;;;;;15.27;9.85;;;;;;;-1.03;82.87;101689.72;5089325;28;20039;-74
2022/02/14 02:57:24;;;;;;;14.05;9.13;;;;;;;-0.67;82.01;101685.22;5083335;28;20035;-74
2022/02/14 02:59:49;;;;;;;22.98;10.45;;;;;;;-0.99;82.33;101688.25;5079090;28;20365;-74
2022/02/14 03:02:15;;;;;;;18.08;10.45;;;;;;;-1.21;83.17;101679.06;5075436;28;20028;-74
2022/02/14 03:04:41;;;;;;;22.90;12.00;;;;;;;-1.12;83.11;101690.00;5088130;28;20047;-74
2022/02/14 03:07:06;;;;;;;16.75;10.82;;;;;;;-1.22;83.60;101689.25;5091432;28;20040;-75
2022/02/14 03:09:46;;;;;;;14.23;10.10;;;;;;;-1.21;83.54;101684.22;5079619;28;20055;-73
2022/02/14 03:12:11;;;;;;;12.85;9.85;;;;;;;-1.10;83.42;101680.69;5087488;28;20044;-75
2022/02/14 03:14:39;;;;;;;17.67;10.35;;;;;;;-1.13;83.05;101670.16;5062911;28;20064;-74
2022/02/14 03:17:10;;;;;;;17.67;10.23;;;;;;;-0.70;82.05;101667.88;5089254;28;20044;-74
2022/02/14 03:19:35;;;;;;;20.55;12.10;;;;;;;-0.68;81.48;101686.91;5089934;28;20074;-75
2022/02/14 03:22:03;;;;;;;18.15;11.15;;;;;;;-1.21;82.84;101673.03;5091855;28;20075;-73
2022/02/14 03:24:28;;;;;;;14.55;9.43;;;;;;;-1.27;83.57;101674.38;5081518;28;20036;-75
2022/02/14 03:26:55;;;;;;;15.98;10.20;;;;;;;-1.19;83.60;101685.22;5088817;28;20024;-74
2022/02/14 03:29:20;;;;;;;24.52;15.45;;;;;;;-1.17;83.78;101675.94;5091285;28;20039;-74
2022/02/14 03:31:46;;;;;;;23.75;12.82;;;;;;;-1.01;83.41;101675.25;5078545;28;20036;-74
2022/02/14 03:34:11;;;;;;;21.85;11.82;;;;;;;-1.14;83.42;101668.41;5080598;28;20051;-74
2022/02/14 03:36:38;;;;;;;20.05;11.85;;;;;;;-0.98;83.55;101674.59;5082741;28;20044;-74
2022/02/14 03:39:05;;;;;;;13.52;8.60;;;;;;;-1.10;83.97;101669.47;5081696;28;20481;-74
2022/02/14 03:41:56;;;;;;;18.08;13.05;;;;;;;-0.99;83.13;101668.50;5085389;28;20103;-74
2022/02/14 03:44:22;;;;;;;15.52;10.85;;;;;;;-1.04;83.53;101664.75;5078342;28;20048;-73
2022/02/14 03:47:17;;;;;;;12.88;9.20;;;;;;;-0.93;83.22;101668.94;5083896;28;20036;-74
2022/02/14 03:49:46;;;;;;;17.35;10.23;;;;;;;-0.99;83.57;101665.94;5076048;28;20044;-73
2022/02/14 03:52:11;;;;;;;16.15;10.10;;;;;;;-0.87;82.81;101669.34;5087408;28;20040;-74
2022/02/14 03:54:36;;;;;;;22.58;15.07;;;;;;;-0.96;83.02;101661.00;5090359;28;20020;-73
2022/02/14 03:57:02;;;;;;;23.23;11.38;;;;;;;-0.59;82.05;101652.22;5086721;28;20499;-73
2022/02/14 03:59:28;;;;;;;18.05;11.00;;;;;;;-0.79;81.89;101650.94;5089126;28;20036;-73
2022/02/14 04:01:53;;;;;;;15.70;8.90;;;;;;;-1.10;83.31;101644.63;5090143;28;20036;-73
2022/02/14 04:04:19;;;;;;;14.48;8.75;;;;;;;-0.80;83.48;101649.13;5089295;28;20133;-74
2022/02/14 04:06:44;;;;;;;19.73;11.48;;;;;;;-0.83;83.04;101641.22;5088824;28;20052;-74
2022/02/14 04:09:10;;;;;;;18.42;11.52;;;;;;;-0.67;82.38;101632.00;5090398;28;20047;-74
2022/02/14 04:11:35;;;;;;;22.83;12.07;;;;;;;-1.07;83.16;101650.00;5088717;28;20028;-74
2022/02/14 04:14:01;;;;;;;25.27;11.45;;;;;;;-0.67;82.87;101644.88;5081509;28;20052;-73
2022/02/14 04:16:26;;;;;;;21.83;15.02;;;;;;;-1.11;83.22;101650.56;5085826;28;20047;-74
2022/02/14 04:18:51;;;;;;;18.33;10.30;;;;;;;-1.31;84.23;101638.06;5089311;28;20047;-73
2022/02/14 04:21:17;;;;;;;17.50;11.45;;;;;;;-1.41;84.32;101639.09;5088340;28;20413;-74
2022/02/14 04:23:42;;;;;;;17.10;11.43;;;;;;;-1.01;83.91;101634.03;5086214;28;20464;-75
2022/02/14 04:26:08;;;;;;;26.45;11.40;;;;;;;-0.94;83.12;101638.78;5084567;28;20044;-74
2022/02/14 04:28:33;;;;;;;19.05;11.88;;;;;;;-1.10;83.51;101642.06;5085229;28;20480;-74
2022/02/14 04:30:59;;;;;;;17.02;10.82;;;;;;;-1.09;83.11;101630.06;5085482;28;20487;-74
2022/02/14 04:33:24;;;;;;;18.35;11.52;;;;;;;-1.13;82.95;101631.53;5083172;28;20480;-74
2022/02/14 04:35:49;;;;;;;19.85;11.73;;;;;;;-1.30;83.50;101645.88;5088959;28;20031;-75
2022/02/14 04:38:15;;;;;;;26.45;16.10;;;;;;;-1.39;83.87;101641.78;5080933;28;20521;-74
2022/02/14 04:40:40;;;;;;;27.88;12.45;;;;;;;-1.08;84.08;101640.50;5083101;28;20062;-74
2022/02/14 04:43:07;;;;;;;19.55;13.13;;;;;;;-0.76;82.39;101633.09;5090374;28;20070;-74
2022/02/14 04:45:33;;;;;;;24.15;12.13;;;;;;;-1.19;83.00;101619.97;5080321;28;20043;-73
2022/02/14 04:47:59;;;;;;;19.17;11.88;;;;;;;-1.35;84.01;101625.75;5089285;28;20028;-74
2022/02/14 04:50:25;;;;;;;23.95;13.65;;;;;;;-1.41;84.32;101630.47;5090812;28;20024;-72
2022/02/14 04:52:51;;;;;;;18.02;11.75;;;;;;;-1.11;83.44;101635.09;5087609;28;20532;-75
2022/02/14 04:55:17;;;;;;;16.98;11.80;;;;;;;-1.07;82.82;101649.09;5079583;28;20032;-74
2022/02/14 04:57:43;;;;;;;15.13;10.50;;;;;;;-1.20;83.01;101634.50;5084655;28;20792;-74
2022/02/14 05:00:11;;;;;;;29.60;13.60;;;;;;;-1.27;84.12;101637.44;5084067;28;20384;-74
2022/02/14 05:02:37;;;;;;;23.88;12.90;;;;;;;-1.33;83.81;101634.47;5076374;28;20036;-74
2022/02/14 05:05:03;;;;;;;38.70;13.35;;;;;;;-1.34;84.04;101641.28;5088071;28;20055;-74
2022/02/14 05:07:31;;;;;;;22.73;13.35;;;;;;;-1.41;83.53;101656.22;5088215;28;20052;-72
2022/02/14 05:09:56;;;;;;;28.40;15.27;;;;;;;-1.49;84.31;101655.72;5087247;28;20047;-72
2022/02/14 05:12:21;;;;;;;27.00;17.08;;;;;;;-1.24;83.36;101653.13;5084305;28;20055;-74
2022/02/14 05:14:47;;;;;;;29.10;17.45;;;;;;;-1.47;83.70;101645.53;5081383;28;20031;-72
2022/02/14 05:17:15;;;;;;;24.77;18.05;;;;;;;-1.23;82.18;101654.91;5087282;28;20023;-74
2022/02/14 05:20:15;;;;;;;30.33;16.50;;;;;;;-1.44;82.78;101661.16;5089915;28;20484;-74
2022/02/14 05:22:40;;;;;;;33.33;17.40;;;;;;;-1.66;83.68;101657.13;5071781;28;20086;-74
2022/02/14 05:25:06;;;;;;;35.13;15.18;;;;;;;-1.59;84.20;101658.41;5064159;28;20434;-73
2022/02/14 05:27:32;;;;;;;23.35;15.00;;;;;;;-1.43;84.49;101665.50;5063870;28;20048;-75
2022/02/14 05:29:57;;;;;;;46.17;26.73;;;;;;;-1.34;84.25;101658.41;5088398;28;20383;-75
2022/02/14 05:32:23;;;;;;;38.42;25.63;;;;;;;-1.23;83.54;101660.03;5085326;28;20028;-74
2022/02/14 05:34:48;;;;;;;43.67;27.48;;;;;;;-0.95;82.44;101659.31;5087433;28;20036;-75
2022/02/14 05:37:14;;;;;;;38.75;21.83;;;;;;;-0.80;82.29;101650.00;5084322;28;20040;-73
2022/02/14 05:39:44;;;;;;;42.53;20.30;;;;;;;-0.48;81.40;101665.00;5086254;28;20380;-74
2022/02/14 05:42:10;;;;;;;29.10;16.30;;;;;;;-0.56;80.93;101663.63;5080898;28;20040;-74
2022/02/14 05:44:35;;;;;;;35.50;17.17;;;;;;;-0.45;80.53;101659.16;5087318;28;20357;-74
2022/02/14 05:47:01;;;;;;;35.75;21.67;;;;;;;-0.57;80.96;101655.78;5088015;28;20035;-74
2022/02/14 05:49:26;;;;;;;29.77;17.77;;;;;;;-0.54;80.95;101668.88;5088276;28;20044;-74
2022/02/14 05:51:52;;;;;;;36.15;21.13;;;;;;;-0.20;80.35;101673.63;5087723;28;20040;-74
2022/02/14 05:54:17;;;;;;;39.95;26.52;;;;;;;-0.63;80.62;101661.44;5076864;28;20440;-74
2022/02/14 05:56:43;;;;;;;38.70;23.30;;;;;;;-0.44;80.59;101672.16;5078948;28;20494;-74
2022/02/14 05:59:08;;;;;;;33.50;24.67;;;;;;;-0.55;80.87;101667.97;5087228;28;20024;-74
2022/02/14 06:01:34;;;;;;;41.00;27.75;;;;;;;-0.66;81.56;101669.88;5082023;28;20111;-74
2022/02/14 06:03:59;;;;;;;41.65;30.98;;;;;;;-0.49;81.03;101664.94;5086477;28;20051;-74
2022/02/14 06:06:25;;;;;;;29.02;21.35;;;;;;;-0.54;81.62;101674.94;5079740;28;20096;-73
2022/02/14 06:08:50;;;;;;;28.40;20.88;;;;;;;-0.51;81.55;101669.09;5089010;28;20032;-74
2022/02/14 06:11:16;;;;;;;37.00;28.55;;;;;;;-0.50;81.65;101670.84;5086472;28;20025;-74
2022/02/14 06:13:42;;;;;;;42.78;31.13;;;;;;;-0.61;81.46;101666.69;5091979;28;20078;-74
2022/02/14 06:16:07;;;;;;;40.80;29.48;;;;;;;-0.66;81.10;101675.03;5088258;28;20040;-75
2022/02/14 06:18:32;;;;;;;48.03;28.23;;;;;;;-0.74;82.00;101672.72;5083129;28;20053;-74
2022/02/14 06:20:58;;;;;;;43.60;25.83;;;;;;;-0.59;81.63;101670.25;5083457;28;20023;-73
2022/02/14 06:23:23;;;;;;;36.33;24.65;;;;;;;-0.23;81.16;101672.63;5089482;28;20027;-73
2022/02/14 06:26:07;;;;;;;34.22;23.42;;;;;;;-0.27;81.06;101667.19;5076406;28;20070;-73
2022/02/14 06:29:19;;;;;;;34.40;21.05;;;;;;;0.15;80.04;101679.31;5084371;28;20044;-73
2022/02/14 06:31:44;;;;;;;31.25;20.10;;;;;;;-0.12;80.76;101675.00;5087196;28;20123;-73
2022/02/14 06:34:11;;;;;;;39.55;22.13;;;;;;;0.10;80.32;101675.56;5085575;28;20384;-73
2022/02/14 06:36:37;;;;;;;42.58;27.98;;;;;;;0.09;79.59;101660.84;5086361;28;20047;-73
2022/02/14 06:39:03;;;;;;;37.83;22.10;;;;;;;0.03;80.09;101675.97;5092083;28;20055;-73
2022/02/14 06:41:29;;;;;;;39.20;30.85;;;;;;;0.08;80.62;101666.81;5088411;28;20032;-73
2022/02/14 06:43:56;;;;;;;46.10;22.98;;;;;;;0.10;80.02;101652.34;5089601;28;20484;-73
2022/02/14 06:46:22;;;;;;;35.65;21.80;;;;;;;0.32;79.55;101645.91;5089194;28;20399;-73
2022/02/14 06:48:49;;;;;;;51.58;35.60;;;;;;;0.49;80.03;101662.41;5081847;28;20041;-74
2022/02/14 06:51:17;;;;;;;48.92;28.48;;;;;;;0.52;79.56;101654.88;5087052;28;20064;-74
2022/02/14 06:53:49;;;;;;;44.75;27.05;;;;;;;0.66;79.12;101643.69;5091754;28;20028;-76
2022/02/14 06:56:15;;;;;;;48.13;33.53;;;;;;;0.55;79.67;101637.88;5078150;28;20184;-77
2022/02/14 06:58:41;;;;;;;53.45;34.55;;;;;;;0.87;78.85;101654.41;5087551;28;20627;-76
2022/02/14 07:01:08;;;;;;;42.03;25.38;;;;;;;1.01;77.92;101647.47;5087871;28;20082;-75
2022/02/14 07:03:34;;;;;;;36.70;26.50;;;;;;;1.32;77.15;101660.47;5082269;28;20044;-75
2022/02/14 07:06:00;;;;;;;40.10;26.95;;;;;;;1.10;77.34;101652.25;5083951;28;20085;-75
2022/02/14 07:08:25;;;;;;;47.70;26.48;;;;;;;1.13;77.60;101636.97;5089929;28;20087;-75
2022/02/14 07:14:12;;;;;;;52.10;28.23;;;;;;;1.96;76.04;101658.00;5088520;28;20155;-74
2022/02/14 07:16:39;;;;;;;70.45;27.33;;;;;;;2.02;75.55;101658.34;5077371;28;20123;-78
2022/02/14 07:19:04;;;;;;;34.60;28.48;;;;;;;1.74;76.35;101648.19;5082432;28;20090;-76
2022/02/14 07:21:30;;;;;;;39.22;25.85;;;;;;;1.83;76.45;101635.75;5086251;28;20028;-76
2022/02/14 07:23:55;;;;;;;33.40;25.52;;;;;;;2.18;75.48;101659.16;5076986;28;20365;-75
2022/02/14 07:26:21;;;;;;;47.38;27.83;;;;;;;2.03;75.43;101646.28;5074848;28;20392;-76
2022/02/14 07:28:47;;;;;;;33.75;24.33;;;;;;;1.85;76.58;101656.50;5083591;28;20473;-74
2022/02/14 07:31:13;;;;;;;37.33;29.10;;;;;;;2.07;75.83;101646.53;5090159;28;20415;-73
2022/02/14 07:33:39;;;;;;;40.60;28.27;;;;;;;2.22;75.47;101650.75;5085527;28;20415;-75
2022/02/14 07:36:06;;;;;;;40.67;26.60;;;;;;;2.59;75.01;101665.69;5086077;28;20036;-74
2022/02/14 07:38:32;;;;;;;27.63;18.95;;;;;;;2.59;74.34;101653.59;5092425;28;20057;-74
2022/02/14 07:40:57;;;;;;;26.55;17.80;;;;;;;2.28;75.53;101656.28;5076737;28;20468;-73
2022/02/14 07:43:23;;;;;;;31.75;14.50;;;;;;;2.59;75.39;101661.38;5082438;28;20043;-72
2022/02/14 07:45:49;;;;;;;36.97;15.60;;;;;;;2.80;74.58;101658.13;5088681;28;20123;-72
2022/02/14 07:48:15;;;;;;;22.60;15.15;;;;;;;2.56;75.37;101645.69;5078873;28;20089;-74
2022/02/14 07:50:40;;;;;;;25.00;15.77;;;;;;;2.65;75.18;101645.28;5088087;28;20024;-73
2022/02/14 07:53:49;;;;;;;26.00;16.00;;;;;;;3.08;73.95;101650.94;5088446;28;20040;-73
2022/02/14 07:56:14;;;;;;;26.83;14.57;;;;;;;2.78;74.49;101660.63;5072225;28;20068;-73
2022/02/14 07:58:42;;;;;;;27.70;15.63;;;;;;;2.84;74.74;101654.91;5085287;28;20067;-74
2022/02/14 08:01:08;;;;;;;29.55;14.70;;;;;;;2.99;74.62;101642.69;5088455;28;20048;-76
2022/02/14 08:03:35;;;;;;;27.33;13.80;;;;;;;3.57;73.49;101663.75;5083945;28;20036;-76
2022/02/14 08:06:02;;;;;;;24.42;15.68;;;;;;;3.71;72.98;101661.81;5075482;28;20127;-80
2022/02/14 08:08:29;;;;;;;18.50;13.55;;;;;;;3.88;72.14;101661.72;5087591;28;20380;-75
2022/02/14 08:10:55;;;;;;;19.98;14.00;;;;;;;3.91;71.64;101647.19;5088855;28;20040;-72
2022/02/14 08:13:20;;;;;;;27.65;13.80;;;;;;;3.80;71.43;101654.47;5082840;28;20051;-72
2022/02/14 08:15:46;;;;;;;20.63;11.68;;;;;;;3.81;71.32;101651.03;5074537;28;20047;-73
2022/02/14 08:18:11;;;;;;;24.33;14.68;;;;;;;3.94;71.61;101655.13;5073381;28;20377;-72
2022/02/14 08:20:37;;;;;;;28.05;13.77;;;;;;;3.88;71.53;101656.53;5073866;28;20029;-74
2022/02/14 08:23:04;;;;;;;25.95;15.80;;;;;;;3.77;71.48;101662.13;5089057;28;20065;-72
2022/02/14 08:25:32;;;;;;;33.80;16.48;;;;;;;3.90;72.07;101647.09;5078872;28;20037;-71
2022/02/14 08:27:59;;;;;;;14.80;12.65;;;;;;;4.27;70.62;101648.81;5077594;28;20039;-72
2022/02/14 08:30:25;;;;;;;23.90;15.93;;;;;;;4.41;69.93;101650.31;5088367;28;20044;-72
2022/02/14 08:32:51;;;;;;;20.50;13.27;;;;;;;4.20;69.72;101652.84;5090031;28;20081;-74
2022/02/14 08:35:17;;;;;;;31.05;15.43;;;;;;;4.04;71.97;101646.03;5068461;28;20494;-71
2022/02/14 08:37:47;;;;;;;17.15;13.43;;;;;;;4.01;71.47;101640.72;5067733;28;20050;-72
2022/02/14 08:40:16;;;;;;;30.48;14.32;;;;;;;3.69;72.15;101647.88;5082654;28;20120;-73
2022/02/14 08:42:42;;;;;;;17.42;11.57;;;;;;;4.51;70.20;101641.22;5088867;28;20036;-71
2022/02/14 08:45:08;;;;;;;25.08;13.07;;;;;;;4.50;70.05;101655.94;5088745;28;20052;-72
2022/02/14 08:47:33;;;;;;;19.65;11.55;;;;;;;4.71;69.48;101637.81;5089772;28;20379;-74
2022/02/14 08:50:05;;;;;;;22.83;12.85;;;;;;;4.90;69.01;101654.19;5086168;28;20036;-72
2022/02/14 08:52:30;;;;;;;24.35;13.82;;;;;;;3.82;71.75;101649.34;5088800;28;20036;-72
2022/02/14 08:54:56;;;;;;;23.13;13.05;;;;;;;4.52;70.62;101653.38;5075432;28;20476;-72
2022/02/14 08:57:22;;;;;;;23.13;13.02;;;;;;;4.39;71.01;101637.25;5084565;28;20039;-73
2022/02/14 08:59:48;;;;;;;21.27;11.30;;;;;;;3.80;72.44;101644.06;5083085;28;20016;-73
2022/02/14 09:02:14;;;;;;;22.08;12.00;;;;;;;3.88;72.80;101634.03;5088648;28;20501;-72
2022/02/14 09:04:41;;;;;;;15.88;11.05;;;;;;;4.28;71.58;101641.06;5088761;28;20040;-72
2022/02/14 09:07:06;;;;;;;17.70;12.13;;;;;;;4.18;71.88;101639.78;5078044;28;20064;-73
2022/02/14 09:09:32;;;;;;;17.30;11.05;;;;;;;4.61;70.31;101636.50;5084927;28;20391;-73
2022/02/14 09:12:02;;;;;;;18.95;12.93;;;;;;;5.10;69.12;101629.91;5088099;28;20028;-73
2022/02/14 09:15:01;;;;;;;23.48;14.40;;;;;;;5.34;68.37;101643.06;5087095;28;20028;-73
2022/02/14 09:17:28;;;;;;;26.73;12.65;;;;;;;5.24;68.13;101638.28;5079153;28;20044;-71
2022/02/14 09:19:54;;;;;;;23.23;11.90;;;;;;;4.94;68.88;101633.59;5083375;28;20040;-71
2022/02/14 09:22:19;;;;;;;19.33;12.07;;;;;;;5.36;68.05;101624.88;5088703;28;20550;-73
2022/02/14 09:24:45;;;;;;;17.65;12.93;;;;;;;5.62;67.14;101636.34;5078971;28;20047;-73
2022/02/14 09:28:01;;;;;;;18.55;10.43;;;;;;;5.35;67.90;101634.41;5089367;28;20036;-72
2022/02/14 09:30:27;;;;;;;15.60;10.98;;;;;;;4.70;70.77;101622.13;5087259;28;20125;-72
2022/02/14 09:32:52;;;;;;;16.20;11.10;;;;;;;5.42;69.09;101623.44;5086811;28;20073;-73
2022/02/14 09:35:26;;;;;;;18.17;11.77;;;;;;;4.87;69.74;101623.75;5087475;28;20511;-72
2022/02/14 09:38:03;;;;;;;;;;;;;;;5.33;68.84;101623.06;5088467;28;20039;-71
2022/02/14 09:40:30;;;;;;;19.33;10.48;;;;;;;5.23;68.77;101602.69;5081197;28;19916;-73
2022/02/14 09:43:11;;;;;;;13.55;8.25;;;;;;;5.22;69.06;101613.91;5089693;28;20127;-72
2022/02/14 09:45:38;;;;;;;12.93;8.88;;;;;;;5.61;67.78;101604.22;5090464;28;20050;-73
2022/02/14 09:48:06;;;;;;;15.65;9.25;;;;;;;5.23;68.88;101610.50;5081370;28;20086;-72
2022/02/14 09:50:40;;;;;;;18.83;7.35;;;;;;;5.65;66.83;101598.31;5086224;28;20053;-69
2022/02/14 09:53:10;;;;;;;11.52;8.77;;;;;;;5.76;64.79;101590.03;5085655;28;20123;-70
2022/02/14 09:55:37;;;;;;;16.27;9.68;;;;;;;6.15;64.60;101605.44;5064625;28;20067;-70
2022/02/14 09:58:04;;;;;;;10.68;7.45;;;;;;;5.37;66.13;101585.03;5094042;28;20508;-69
2022/02/14 10:00:30;;;;;;;14.38;8.55;;;;;;;5.25;65.75;101594.13;5090882;28;20073;-69
2022/02/14 10:03:18;;;;;;;10.50;5.80;;;;;;;5.02;65.25;101594.88;5091046;28;20383;-69
2022/02/14 10:05:47;;;;;;;21.65;7.32;;;;;;;4.90;66.00;101597.00;5081191;28;20317;-70
2022/02/14 10:08:30;;;;;;;13.60;6.88;;;;;;;5.67;64.63;101581.03;5091451;28;20032;-69
2022/02/14 10:11:16;;;;;;;9.73;4.32;;;;;;;6.41;61.41;101581.19;5080560;28;20127;-69
2022/02/14 10:17:09;;;;;;;11.88;5.70;;;;;;;6.75;59.28;101565.00;5071776;28;20085;-69
2022/02/14 10:19:55;;;;;;;11.43;6.82;;;;;;;6.31;58.70;101553.91;5079416;28;20035;-69
2022/02/14 10:22:27;;;;;;;8.32;5.80;;;;;;;6.81;58.80;101546.06;5090967;28;20051;-69
2022/02/14 10:24:53;;;;;;;8.85;6.47;;;;;;;6.92;58.10;101554.25;5091895;28;20051;-69
2022/02/14 10:27:33;;;;;;;12.32;7.63;;;;;;;7.08;57.82;101551.31;5090516;28;20383;-69
2022/02/14 10:30:09;;;;;;;15.27;7.57;;;;;;;5.88;58.64;101539.28;5091573;28;20032;-72
2022/02/14 10:32:49;;;;;;;11.20;7.68;;;;;;;6.70;56.87;101534.41;5081037;28;20106;-69
2022/02/14 10:35:14;;;;;;;11.88;8.07;;;;;;;6.95;56.33;101526.56;5084966;28;20059;-69
2022/02/14 10:37:43;;;;;;;11.38;7.07;;;;;;;7.35;55.05;101538.28;5090356;28;20028;-69
2022/02/14 10:40:10;;;;;;;19.80;7.35;;;;;;;7.29;55.40;101534.56;5082846;28;20098;-69
2022/02/14 10:42:36;;;;;;;14.05;8.57;;;;;;;7.55;55.79;101522.31;5075097;28;20376;-68
2022/02/14 10:45:10;;;;;;;13.32;8.45;;;;;;;7.29;55.68;101513.69;5079566;28;20024;-69
2022/02/14 10:47:40;;;;;;;13.82;9.63;;;;;;;7.13;53.76;101520.16;5083858;28;20479;-69
2022/02/14 10:50:10;;;;;;;11.15;7.22;;;;;;;6.22;54.75;101511.88;5087150;28;20036;-69
2022/02/14 10:53:07;;;;;;;12.18;7.05;;;;;;;6.88;54.35;101523.69;5090177;28;20130;-69
2022/02/14 10:55:37;;;;;;;16.80;7.85;;;;;;;6.81;53.76;101508.66;5090012;28;20040;-75
2022/02/14 10:58:03;;;;;;;14.18;7.57;;;;;;;7.01;55.17;101506.72;5088410;28;20502;-74
2022/02/14 11:00:31;;;;;;;15.70;7.60;;;;;;;7.01;53.91;101493.66;5092007;28;20040;-74
2022/02/14 11:03:01;;;;;;;17.80;7.80;;;;;;;7.57;52.87;101508.47;5089575;28;20085;-74
2022/02/14 11:05:28;;;;;;;15.82;7.45;;;;;;;6.87;53.13;101488.00;5089893;28;20032;-75
2022/02/14 11:07:55;;;;;;;15.90;7.53;;;;;;;5.99;55.33;101497.16;5090926;28;20101;-73
2022/02/14 11:10:22;;;;;;;10.77;7.35;;;;;;;5.95;53.55;101493.56;5089021;28;20517;-70
2022/02/14 11:12:52;;;;;;;12.38;6.10;;;;;;;6.38;52.64;101496.78;5089850;28;20128;-76
2022/02/14 11:15:18;;;;;;;10.27;6.38;;;;;;;6.38;51.69;101481.16;5090596;28;20492;-74
2022/02/14 11:17:46;;;;;;;16.65;6.53;;;;;;;6.93;51.35;101488.19;5086372;28;20480;-75
2022/02/14 11:20:12;;;;;;;13.25;6.10;;;;;;;7.57;48.50;101491.91;5086706;28;20119;-76
2022/02/14 11:22:49;;;;;;;10.00;6.38;;;;;;;7.55;47.85;101489.25;5088923;28;20111;-75
2022/02/14 11:25:21;;;;;;;9.65;6.07;;;;;;;6.39;49.89;101495.94;5088493;28;20136;-75
2022/02/14 11:28:16;;;;;;;14.57;5.43;;;;;;;6.46;50.42;101488.41;5086628;28;20040;-74